createdAt,value
2022-09-28T00:00:57.540Z,0
2022-09-28T00:02:06.704Z,0
2022-09-28T00:03:15.895Z,0
2022-09-28T00:04:25.093Z,0
2022-09-28T00:05:34.219Z,0
2022-09-28T00:06:43.430Z,0
2022-09-28T00:07:52.572Z,0
2022-09-28T00:09:01.752Z,0
2022-09-28T00:10:10.928Z,0
2022-09-28T00:11:19.141Z,0
2022-09-28T00:12:27.301Z,0
2022-09-28T00:13:36.522Z,0
2022-09-28T00:14:45.648Z,0
2022-09-28T00:15:53.883Z,0
2022-09-28T00:17:02.034Z,0
2022-09-28T00:18:11.198Z,0
2022-09-28T00:19:20.370Z,0
2022-09-28T00:20:29.556Z,0
2022-09-28T00:21:38.718Z,0
2022-09-28T00:22:47.879Z,0
2022-09-28T00:23:57.059Z,0
2022-09-28T00:25:06.243Z,0
2022-09-28T00:26:15.412Z,0
2022-09-28T00:27:24.574Z,0
2022-09-28T00:28:33.752Z,0
2022-09-28T00:29:42.933Z,0
2022-09-28T00:30:52.091Z,0
2022-09-28T00:32:00.316Z,0
2022-09-28T00:33:09.456Z,0
2022-09-28T00:34:18.628Z,0
2022-09-28T00:35:27.853Z,0
2022-09-28T00:36:36.972Z,0
2022-09-28T00:37:46.149Z,0
2022-09-28T00:38:55.319Z,0
2022-09-28T00:40:03.510Z,0
2022-09-28T00:41:11.709Z,0
2022-09-28T00:42:19.889Z,0
2022-09-28T00:43:28.085Z,0
2022-09-28T00:44:37.257Z,0
2022-09-28T00:45:46.425Z,0
2022-09-28T00:46:55.598Z,0
2022-09-28T00:48:04.770Z,0
2022-09-28T00:49:13.949Z,0
2022-09-28T00:50:23.123Z,0
2022-09-28T00:51:32.292Z,0
2022-09-28T00:52:41.475Z,0
2022-09-28T00:53:50.633Z,0
2022-09-28T00:54:59.813Z,0
2022-09-28T00:56:08.979Z,0
2022-09-28T00:57:18.155Z,0
2022-09-28T00:58:26.349Z,0
2022-09-28T00:59:35.512Z,0
2022-09-28T01:00:44.682Z,0
2022-09-28T01:01:53.861Z,0
2022-09-28T01:03:03.034Z,0
2022-09-28T01:04:12.204Z,0
2022-09-28T01:05:21.378Z,0
2022-09-28T01:06:30.584Z,0
2022-09-28T01:07:39.726Z,0
2022-09-28T01:08:48.923Z,0
2022-09-28T01:09:58.068Z,0
2022-09-28T01:11:07.240Z,0
2022-09-28T01:12:16.447Z,0
2022-09-28T01:13:24.600Z,0
2022-09-28T01:14:33.776Z,0
2022-09-28T01:15:42.942Z,0
2022-09-28T01:16:52.133Z,0
2022-09-28T01:18:01.295Z,0
2022-09-28T01:19:10.462Z,0
2022-09-28T01:20:19.642Z,0
2022-09-28T01:21:28.808Z,0
2022-09-28T01:22:37.995Z,0
2022-09-28T01:23:47.167Z,0
2022-09-28T01:24:56.327Z,0
2022-09-28T01:26:05.504Z,0
2022-09-28T01:27:14.680Z,0
2022-09-28T01:28:22.868Z,0
2022-09-28T01:29:32.030Z,0
2022-09-28T01:30:41.214Z,0
2022-09-28T01:31:50.383Z,0
2022-09-28T01:32:59.569Z,0
2022-09-28T01:34:08.726Z,0
2022-09-28T01:35:17.908Z,0
2022-09-28T01:36:27.077Z,0
2022-09-28T01:37:36.241Z,0
2022-09-28T01:38:45.420Z,0
2022-09-28T01:39:54.593Z,0
2022-09-28T01:41:03.762Z,0
2022-09-28T01:42:12.943Z,0
2022-09-28T01:43:21.123Z,0
2022-09-28T01:44:30.299Z,0
2022-09-28T01:45:39.469Z,0
2022-09-28T01:46:48.638Z,0
2022-09-28T01:47:57.816Z,0
2022-09-28T01:49:06.994Z,0
2022-09-28T01:50:16.161Z,0
2022-09-28T01:51:25.352Z,0
2022-09-28T01:52:34.500Z,0
2022-09-28T01:53:43.687Z,0
2022-09-28T01:54:52.849Z,0
2022-09-28T01:56:02.044Z,0
2022-09-28T01:57:11.195Z,0
2022-09-28T01:58:19.381Z,0
2022-09-28T01:59:27.575Z,0
2022-09-28T02:00:36.750Z,0
2022-09-28T02:01:45.926Z,0
2022-09-28T02:02:55.098Z,0
2022-09-28T02:04:04.272Z,0
2022-09-28T02:05:13.442Z,0
2022-09-28T02:06:22.611Z,0
2022-09-28T02:08:40.955Z,0
2022-09-28T02:09:50.140Z,0
2022-09-28T02:10:59.296Z,0
2022-09-28T02:12:08.472Z,0
2022-09-28T02:13:17.650Z,0
2022-09-28T02:14:25.831Z,0
2022-09-28T02:15:34.034Z,0
2022-09-28T02:16:42.217Z,0
2022-09-28T02:17:51.393Z,0
2022-09-28T02:19:00.569Z,0
2022-09-28T02:20:09.738Z,0
2022-09-28T02:21:18.902Z,0
2022-09-28T02:22:28.092Z,0
2022-09-28T02:23:37.262Z,0
2022-09-28T02:24:46.427Z,0
2022-09-28T02:25:55.603Z,0
2022-09-28T02:28:13.946Z,0
2022-09-28T02:29:23.130Z,0
2022-09-28T02:30:32.327Z,0
2022-09-28T02:31:40.478Z,0
2022-09-28T02:32:49.657Z,0
2022-09-28T02:33:58.821Z,0
2022-09-28T02:35:07.018Z,0
2022-09-28T02:36:15.201Z,0
2022-09-28T02:37:24.381Z,0
2022-09-28T02:38:33.551Z,0
2022-09-28T02:39:42.724Z,0
2022-09-28T02:40:51.895Z,0
2022-09-28T02:42:01.070Z,0
2022-09-28T02:43:10.245Z,0
2022-09-28T02:44:19.420Z,0
2022-09-28T02:45:28.607Z,0
2022-09-28T02:46:37.756Z,0
2022-09-28T02:47:46.928Z,0
2022-09-28T02:48:56.111Z,0
2022-09-28T02:50:05.276Z,0
2022-09-28T02:51:13.478Z,0
2022-09-28T02:52:22.643Z,0
2022-09-28T02:53:31.810Z,0
2022-09-28T02:54:40.990Z,0
2022-09-28T02:55:50.166Z,0
2022-09-28T02:56:59.323Z,0
2022-09-28T02:58:08.502Z,0
2022-09-28T02:59:17.677Z,0
2022-09-28T03:00:26.842Z,0
2022-09-28T03:01:36.014Z,0
2022-09-28T03:02:45.191Z,0
2022-09-28T03:03:54.382Z,0
2022-09-28T03:05:03.540Z,0
2022-09-28T03:06:11.732Z,0
2022-09-28T03:07:20.894Z,0
2022-09-28T03:08:30.079Z,0
2022-09-28T03:09:39.246Z,0
2022-09-28T03:10:48.428Z,0
2022-09-28T03:11:57.595Z,0
2022-09-28T03:13:06.767Z,0
2022-09-28T03:14:15.940Z,0
2022-09-28T03:15:25.135Z,0
2022-09-28T03:16:34.278Z,0
2022-09-28T03:17:43.449Z,0
2022-09-28T03:18:52.634Z,0
2022-09-28T03:20:01.797Z,0
2022-09-28T03:21:09.986Z,0
2022-09-28T03:22:19.158Z,0
2022-09-28T03:23:28.339Z,0
2022-09-28T03:24:37.501Z,0
2022-09-28T03:25:46.701Z,0
2022-09-28T03:26:55.850Z,0
2022-09-28T03:28:05.025Z,0
2022-09-28T03:29:14.194Z,0
2022-09-28T03:30:23.362Z,0
2022-09-28T03:31:32.549Z,0
2022-09-28T03:32:41.704Z,0
2022-09-28T03:33:50.883Z,0
2022-09-28T03:36:09.240Z,0
2022-09-28T03:37:17.409Z,0
2022-09-28T03:38:26.588Z,0
2022-09-28T03:39:35.762Z,0
2022-09-28T03:40:44.937Z,0
2022-09-28T03:41:54.105Z,0
2022-09-28T03:43:03.276Z,0
2022-09-28T03:44:12.456Z,0
2022-09-28T03:45:21.645Z,0
2022-09-28T03:46:30.802Z,0
2022-09-28T03:47:39.982Z,0
2022-09-28T03:48:49.154Z,0
2022-09-28T03:49:58.311Z,0
2022-09-28T03:51:07.485Z,0
2022-09-28T03:52:15.675Z,0
2022-09-28T03:53:24.855Z,0
2022-09-28T03:54:34.016Z,0
2022-09-28T03:55:43.190Z,0
2022-09-28T03:56:52.369Z,0
2022-09-28T03:58:01.540Z,0
2022-09-28T03:59:10.708Z,0
2022-09-28T04:00:19.876Z,0
2022-09-28T04:01:29.054Z,0
2022-09-28T04:02:38.235Z,0
2022-09-28T04:03:47.401Z,0
2022-09-28T04:04:56.576Z,0
2022-09-28T04:06:05.750Z,0
2022-09-28T04:07:14.020Z,0
2022-09-28T04:08:23.113Z,0
2022-09-28T04:09:32.283Z,0
2022-09-28T04:10:41.448Z,0
2022-09-28T04:11:50.639Z,0
2022-09-28T04:12:59.815Z,0
2022-09-28T04:14:08.979Z,0
2022-09-28T04:15:18.150Z,0
2022-09-28T04:16:27.332Z,0
2022-09-28T04:17:36.504Z,0
2022-09-28T04:18:44.686Z,0
2022-09-28T04:19:52.883Z,0
2022-09-28T04:21:02.051Z,0
2022-09-28T04:22:11.217Z,0
2022-09-28T04:23:20.402Z,0
2022-09-28T04:24:29.562Z,0
2022-09-28T04:25:37.768Z,0
2022-09-28T04:26:45.951Z,0
2022-09-28T04:27:55.134Z,0
2022-09-28T04:29:04.300Z,0
2022-09-28T04:30:13.464Z,0
2022-09-28T04:31:22.633Z,0
2022-09-28T04:32:31.879Z,0
2022-09-28T04:33:40.991Z,0
2022-09-28T04:34:50.196Z,0
2022-09-28T04:37:08.511Z,0
2022-09-28T04:38:17.674Z,0
2022-09-28T04:39:26.842Z,0
2022-09-28T04:40:36.017Z,0
2022-09-28T04:41:44.215Z,0
2022-09-28T04:42:53.374Z,0
2022-09-28T04:44:02.557Z,0
2022-09-28T04:45:11.724Z,0
2022-09-28T04:46:20.907Z,3
2022-09-28T04:47:30.087Z,0
2022-09-28T04:48:39.244Z,0
2022-09-28T04:49:48.412Z,0
2022-09-28T04:50:57.587Z,0
2022-09-28T04:52:06.771Z,0
2022-09-28T04:53:14.959Z,0
2022-09-28T04:54:23.150Z,0
2022-09-28T04:55:31.332Z,3
2022-09-28T04:56:39.525Z,3
2022-09-28T04:57:48.711Z,3
2022-09-28T04:58:57.879Z,3
2022-09-28T05:00:07.038Z,4
2022-09-28T05:01:16.229Z,0
2022-09-28T05:02:25.394Z,4
2022-09-28T05:03:34.574Z,4
2022-09-28T05:04:43.732Z,4
2022-09-28T05:05:52.892Z,9
2022-09-28T05:07:02.086Z,1
2022-09-28T05:08:11.267Z,9
2022-09-28T05:09:20.428Z,5
2022-09-28T05:10:29.612Z,5
2022-09-28T05:11:37.786Z,10
2022-09-28T05:12:46.983Z,6
2022-09-28T05:13:56.131Z,10
2022-09-28T05:15:05.329Z,6
2022-09-28T05:16:14.476Z,23
2022-09-28T05:17:23.656Z,32
2022-09-28T05:18:32.827Z,41
2022-09-28T05:19:41.996Z,41
2022-09-28T05:20:51.192Z,47
2022-09-28T05:22:00.339Z,38
2022-09-28T05:23:09.510Z,55
2022-09-28T05:24:18.688Z,60
2022-09-28T05:25:27.861Z,56
2022-09-28T05:26:36.046Z,78
2022-09-28T05:27:45.227Z,92
2022-09-28T05:28:54.398Z,98
2022-09-28T05:30:03.572Z,116
2022-09-28T05:31:12.737Z,134
2022-09-28T05:32:21.906Z,140
2022-09-28T05:33:31.078Z,160
2022-09-28T05:34:40.264Z,188
2022-09-28T05:35:49.421Z,183
2022-09-28T05:36:58.606Z,221
2022-09-28T05:38:07.766Z,220
2022-09-28T05:39:16.957Z,270
2022-09-28T05:40:26.119Z,264
2022-09-28T05:41:34.313Z,273
2022-09-28T05:42:43.481Z,294
2022-09-28T05:43:52.656Z,311
2022-09-28T05:45:01.827Z,316
2022-09-28T05:46:11.007Z,316
2022-09-28T05:47:20.177Z,349
2022-09-28T05:48:29.347Z,384
2022-09-28T05:49:38.519Z,405
2022-09-28T05:50:46.711Z,413
2022-09-28T05:51:55.884Z,380
2022-09-28T05:53:05.062Z,417
2022-09-28T05:54:14.234Z,424
2022-09-28T05:55:23.441Z,435
2022-09-28T05:56:32.576Z,411
2022-09-28T05:57:41.750Z,425
2022-09-28T05:58:50.920Z,411
2022-09-28T06:00:00.126Z,411
2022-09-28T06:01:09.260Z,392
2022-09-28T06:02:18.441Z,427
2022-09-28T06:03:27.609Z,478
2022-09-28T06:04:36.791Z,529
2022-09-28T06:05:45.002Z,569
2022-09-28T06:06:54.155Z,603
2022-09-28T06:08:03.318Z,591
2022-09-28T06:09:12.483Z,596
2022-09-28T06:10:21.659Z,629
2022-09-28T06:11:30.845Z,700
2022-09-28T06:12:40.001Z,728
2022-09-28T06:13:49.184Z,798
2022-09-28T06:14:58.353Z,793
2022-09-28T06:16:07.526Z,805
2022-09-28T06:17:16.694Z,865
2022-09-28T06:18:25.913Z,934
2022-09-28T06:19:35.048Z,1125
2022-09-28T06:20:43.238Z,1213
2022-09-28T06:21:52.421Z,1254
2022-09-28T06:23:01.621Z,1344
2022-09-28T06:24:10.757Z,1370
2022-09-28T06:25:19.937Z,1415
2022-09-28T06:26:29.105Z,1233
2022-09-28T06:27:38.283Z,1210
2022-09-28T06:28:47.441Z,1174
2022-09-28T06:29:56.630Z,1356
2022-09-28T06:31:05.787Z,1477
2022-09-28T06:32:14.977Z,1418
2022-09-28T06:33:24.202Z,1530
2022-09-28T06:34:33.310Z,1595
2022-09-28T06:35:41.494Z,1668
2022-09-28T06:36:50.665Z,1717
2022-09-28T06:37:59.853Z,1702
2022-09-28T06:39:09.016Z,1779
2022-09-28T06:40:18.178Z,1664
2022-09-28T06:41:27.348Z,1673
2022-09-28T06:42:36.540Z,1469
2022-09-28T06:43:45.756Z,1505
2022-09-28T06:44:54.893Z,1451
2022-09-28T06:46:04.048Z,1298
2022-09-28T06:47:13.227Z,1315
2022-09-28T06:48:22.389Z,1525
2022-09-28T06:49:31.574Z,1420
2022-09-28T06:50:39.750Z,1485
2022-09-28T06:51:48.941Z,1261
2022-09-28T06:52:58.104Z,973
2022-09-28T06:54:07.267Z,924
2022-09-28T06:55:16.456Z,980
2022-09-28T06:56:25.615Z,1121
2022-09-28T06:58:43.959Z,1184
2022-09-28T06:59:53.141Z,1396
2022-09-28T07:01:02.347Z,1570
2022-09-28T07:02:11.493Z,1545
2022-09-28T07:03:20.720Z,1527
2022-09-28T07:04:29.828Z,1609
2022-09-28T07:05:38.054Z,1555
2022-09-28T07:06:47.188Z,1592
2022-09-28T07:07:56.376Z,1476
2022-09-28T07:09:05.635Z,1258
2022-09-28T07:10:14.819Z,1391
2022-09-28T07:11:23.873Z,1271
2022-09-28T07:12:33.080Z,1442
2022-09-28T07:13:42.216Z,1652
2022-09-28T07:14:51.544Z,1848
2022-09-28T07:16:00.587Z,1650
2022-09-28T07:17:09.872Z,1341
2022-09-28T07:18:18.953Z,1291
2022-09-28T07:19:28.084Z,1767
2022-09-28T07:20:36.390Z,2304
2022-09-28T07:21:45.599Z,2457
2022-09-28T07:22:54.627Z,2543
2022-09-28T07:24:03.825Z,2700
2022-09-28T07:25:12.998Z,2861
2022-09-28T07:26:22.289Z,2923
2022-09-28T07:27:31.318Z,2903
2022-09-28T07:28:40.486Z,2874
2022-09-28T07:29:49.659Z,2881
2022-09-28T07:30:58.830Z,3006
2022-09-28T07:32:08.046Z,2993
2022-09-28T07:33:17.172Z,2854
2022-09-28T07:34:26.402Z,2584
2022-09-28T07:35:34.535Z,2216
2022-09-28T07:36:43.710Z,1981
2022-09-28T07:37:52.879Z,2039
2022-09-28T07:39:02.060Z,2272
2022-09-28T07:40:11.219Z,2230
2022-09-28T07:41:20.409Z,2139
2022-09-28T07:42:29.573Z,2471
2022-09-28T07:43:38.766Z,2986
2022-09-28T07:44:47.922Z,2958
2022-09-28T07:45:57.085Z,3450
2022-09-28T07:47:06.256Z,3674
2022-09-28T07:48:15.438Z,3933
2022-09-28T07:49:24.596Z,3500
2022-09-28T07:50:32.792Z,3314
2022-09-28T07:51:41.962Z,3393
2022-09-28T07:52:51.144Z,3603
2022-09-28T07:54:00.309Z,3306
2022-09-28T07:55:09.482Z,2915
2022-09-28T07:56:18.659Z,3019
2022-09-28T07:57:27.825Z,2664
2022-09-28T07:58:37.011Z,2625
2022-09-28T07:59:46.172Z,2970
2022-09-28T08:00:55.339Z,2841
2022-09-28T08:02:04.517Z,2226
2022-09-28T08:03:13.691Z,1984
2022-09-28T08:04:22.861Z,1899
2022-09-28T08:05:31.051Z,2437
2022-09-28T08:06:40.226Z,2403
2022-09-28T08:07:49.388Z,2226
2022-09-28T08:08:58.560Z,2171
2022-09-28T08:10:07.749Z,2313
2022-09-28T08:11:16.905Z,2115
2022-09-28T08:12:26.092Z,2234
2022-09-28T08:13:35.249Z,3523
2022-09-28T08:14:44.427Z,4472
2022-09-28T08:15:53.603Z,5051
2022-09-28T08:17:02.773Z,4452
2022-09-28T08:18:11.950Z,3117
2022-09-28T08:19:21.114Z,2471
2022-09-28T08:20:29.314Z,2911
2022-09-28T08:21:38.491Z,3298
2022-09-28T08:22:47.653Z,2347
2022-09-28T08:23:56.837Z,2316
2022-09-28T08:25:05.997Z,2515
2022-09-28T08:26:14.185Z,2659
2022-09-28T08:27:22.384Z,2972
2022-09-28T08:28:31.559Z,3054
2022-09-28T08:29:40.715Z,3311
2022-09-28T08:30:49.897Z,3717
2022-09-28T08:33:08.283Z,4275
2022-09-28T08:34:17.423Z,4289
2022-09-28T08:35:26.588Z,4748
2022-09-28T08:36:35.755Z,5203
2022-09-28T08:38:53.123Z,5769
2022-09-28T08:40:01.319Z,6258
2022-09-28T08:41:09.510Z,5893
2022-09-28T08:42:18.692Z,5128
2022-09-28T08:43:27.850Z,4931
2022-09-28T08:44:37.025Z,5645
2022-09-28T08:45:46.206Z,5072
2022-09-28T08:46:55.427Z,4250
2022-09-28T08:48:04.546Z,4082
2022-09-28T08:49:13.712Z,3922
2022-09-28T08:50:22.887Z,4029
2022-09-28T08:51:32.061Z,3813
2022-09-28T08:52:41.233Z,3213
2022-09-28T08:53:50.400Z,3255
2022-09-28T08:54:59.587Z,3448
2022-09-28T08:56:07.768Z,3535
2022-09-28T08:57:16.943Z,3310
2022-09-28T08:58:26.213Z,3690
2022-09-28T08:59:35.278Z,5027
2022-09-28T09:00:44.493Z,4472
2022-09-28T09:01:53.737Z,4039
2022-09-28T09:03:02.800Z,3744
2022-09-28T09:04:11.976Z,4362
2022-09-28T09:05:21.142Z,4273
2022-09-28T09:06:30.334Z,3982
2022-09-28T09:07:39.510Z,3810
2022-09-28T09:08:48.695Z,4077
2022-09-28T09:09:57.827Z,4324
2022-09-28T09:11:06.039Z,4519
2022-09-28T09:12:15.197Z,4896
2022-09-28T09:13:24.409Z,4504
2022-09-28T09:14:33.539Z,3402
2022-09-28T09:15:42.767Z,3768
2022-09-28T09:16:51.894Z,4950
2022-09-28T09:18:01.055Z,5173
2022-09-28T09:19:10.245Z,5597
2022-09-28T09:20:19.409Z,5823
2022-09-28T09:21:28.580Z,5439
2022-09-28T09:22:37.750Z,5722
2022-09-28T09:23:46.921Z,6081
2022-09-28T09:24:56.102Z,6241
2022-09-28T09:26:04.296Z,6554
2022-09-28T09:27:13.467Z,7352
2022-09-28T09:28:22.658Z,7279
2022-09-28T09:29:31.812Z,7842
2022-09-28T09:30:40.976Z,6914
2022-09-28T09:31:50.151Z,6845
2022-09-28T09:32:59.330Z,6063
2022-09-28T09:34:08.492Z,3565
2022-09-28T09:35:17.659Z,11220
2022-09-28T09:36:26.880Z,11580
2022-09-28T09:37:36.012Z,9468
2022-09-28T09:38:45.265Z,3517
2022-09-28T09:41:03.636Z,8247
2022-09-28T09:42:11.726Z,8637
2022-09-28T09:43:20.897Z,7420
2022-09-28T09:44:30.071Z,10032
2022-09-28T09:45:39.229Z,9506
2022-09-28T09:46:48.413Z,8735
2022-09-28T09:47:57.593Z,8043
2022-09-28T09:49:06.762Z,6773
2022-09-28T09:51:25.099Z,5867
2022-09-28T09:52:34.269Z,5862
2022-09-28T09:53:43.440Z,6791
2022-09-28T09:54:52.625Z,6973
2022-09-28T09:56:01.796Z,6451
2022-09-28T09:57:09.990Z,7195
2022-09-28T09:58:19.147Z,6762
2022-09-28T09:59:28.318Z,4316
2022-09-28T10:00:37.534Z,18441
2022-09-28T10:01:46.672Z,10650
2022-09-28T10:02:55.850Z,8900
2022-09-28T10:04:05.011Z,8418
2022-09-28T10:05:14.181Z,9747
2022-09-28T10:06:23.348Z,7719
2022-09-28T10:07:32.531Z,8154
2022-09-28T10:08:41.707Z,7038
2022-09-28T10:09:50.874Z,6200
2022-09-28T10:11:00.064Z,5709
2022-09-28T10:12:08.247Z,6464
2022-09-28T10:13:17.414Z,6867
2022-09-28T10:14:26.582Z,7585
2022-09-28T10:15:35.758Z,8546
2022-09-28T10:16:44.930Z,7836
2022-09-28T10:17:54.089Z,8655
2022-09-28T10:19:03.274Z,11875
2022-09-28T10:20:12.437Z,10083
2022-09-28T10:21:21.619Z,11392
2022-09-28T10:22:30.791Z,3443
2022-09-28T10:23:39.974Z,14164
2022-09-28T10:24:49.122Z,6944
2022-09-28T10:25:58.310Z,6382
2022-09-28T10:27:06.484Z,6956
2022-09-28T10:28:15.664Z,7479
2022-09-28T10:29:24.837Z,7500
2022-09-28T10:30:34.002Z,4971
2022-09-28T10:31:43.178Z,3602
2022-09-28T10:32:52.346Z,9084
2022-09-28T10:34:01.540Z,9644
2022-09-28T10:35:10.699Z,7803
2022-09-28T10:36:19.887Z,11711
2022-09-28T10:37:29.042Z,7000
2022-09-28T10:38:38.213Z,15428
2022-09-28T10:39:47.385Z,10118
2022-09-28T10:40:56.568Z,6596
2022-09-28T10:42:05.733Z,8223
2022-09-28T10:43:13.914Z,9805
2022-09-28T10:44:23.085Z,12611
2022-09-28T10:45:32.265Z,4447
2022-09-28T10:47:50.607Z,9022
2022-09-28T10:48:59.792Z,8945
2022-09-28T10:50:08.948Z,9118
2022-09-28T10:51:18.117Z,9124
2022-09-28T10:52:27.312Z,8750
2022-09-28T10:53:36.473Z,8784
2022-09-28T10:54:45.639Z,8052
2022-09-28T10:55:54.832Z,8061
2022-09-28T10:57:03.997Z,8696
2022-09-28T10:58:12.166Z,9481
2022-09-28T10:59:21.339Z,13344
2022-09-28T11:00:30.547Z,4341
2022-09-28T11:01:39.734Z,10584
2022-09-28T11:02:48.863Z,2461
2022-09-28T11:03:58.029Z,9532
2022-09-28T11:05:07.202Z,8506
2022-09-28T11:06:16.373Z,9628
2022-09-28T11:07:25.545Z,9334
2022-09-28T11:08:34.712Z,9531
2022-09-28T11:09:43.897Z,9292
2022-09-28T11:10:53.061Z,10103
2022-09-28T11:12:02.235Z,11088
2022-09-28T11:13:10.444Z,9963
2022-09-28T11:14:19.597Z,14236
2022-09-28T11:15:28.774Z,5068
2022-09-28T11:16:37.942Z,11253
2022-09-28T11:17:47.111Z,15403
2022-09-28T11:18:56.298Z,8233
2022-09-28T11:20:05.466Z,11121
2022-09-28T11:21:14.630Z,9476
2022-09-28T11:22:23.795Z,2552
2022-09-28T11:23:33.019Z,12136
2022-09-28T11:24:42.165Z,6675
2022-09-28T11:25:51.324Z,5706
2022-09-28T11:27:00.491Z,2647
2022-09-28T11:28:08.689Z,9516
2022-09-28T11:29:17.861Z,12418
2022-09-28T11:30:27.034Z,8530
2022-09-28T11:31:36.205Z,6375
2022-09-28T11:32:45.380Z,2329
2022-09-28T11:33:54.545Z,9741
2022-09-28T11:35:03.712Z,6472
2022-09-28T11:36:12.884Z,6621
2022-09-28T11:37:22.042Z,6844
2022-09-28T11:38:31.300Z,6573
2022-09-28T11:39:40.396Z,2248
2022-09-28T11:40:49.580Z,10349
2022-09-28T11:41:58.742Z,6281
2022-09-28T11:43:06.945Z,5639
2022-09-28T11:44:16.116Z,5590
2022-09-28T11:45:24.293Z,5185
2022-09-28T11:46:33.479Z,4783
2022-09-28T11:47:42.646Z,4795
2022-09-28T11:48:51.821Z,5130
2022-09-28T11:50:00.979Z,5236
2022-09-28T11:51:10.160Z,5372
2022-09-28T11:52:19.330Z,5462
2022-09-28T11:53:27.525Z,6071
2022-09-28T11:54:35.708Z,5948
2022-09-28T11:55:44.887Z,3893
2022-09-28T11:56:54.060Z,8904
2022-09-28T11:58:03.229Z,6093
2022-09-28T11:59:12.403Z,5906
2022-09-28T12:00:21.575Z,5495
2022-09-28T12:01:30.758Z,5545
2022-09-28T12:02:39.925Z,5979
2022-09-28T12:03:49.093Z,5639
2022-09-28T12:06:07.505Z,4609
2022-09-28T12:07:16.607Z,4236
2022-09-28T12:08:25.790Z,4361
2022-09-28T12:09:33.980Z,4332
2022-09-28T12:10:43.134Z,4460
2022-09-28T12:13:01.496Z,4967
2022-09-28T12:14:10.657Z,4907
2022-09-28T12:15:18.853Z,5065
2022-09-28T12:16:27.047Z,4927
2022-09-28T12:17:36.217Z,4686
2022-09-28T12:18:45.395Z,4392
2022-09-28T12:19:54.567Z,3927
2022-09-28T12:21:03.744Z,3810
2022-09-28T12:22:12.897Z,3793
2022-09-28T12:23:22.081Z,3662
2022-09-28T12:24:31.253Z,3541
2022-09-28T12:26:49.591Z,4346
2022-09-28T12:27:58.775Z,4959
2022-09-28T12:29:07.948Z,5717
2022-09-28T12:30:17.121Z,6094
2022-09-28T12:31:26.287Z,6435
2022-09-28T12:32:35.459Z,6744
2022-09-28T12:33:43.641Z,8244
2022-09-28T12:34:52.823Z,8243
2022-09-28T12:36:02.004Z,4074
2022-09-28T12:37:11.178Z,12669
2022-09-28T12:38:20.338Z,22904
2022-09-28T12:39:29.507Z,5623
2022-09-28T12:40:37.701Z,14233
2022-09-28T12:41:46.878Z,24758
2022-09-28T12:42:55.060Z,9733
2022-09-28T12:44:04.231Z,9366
2022-09-28T12:45:13.503Z,3394
2022-09-28T12:47:31.753Z,7329
2022-09-28T12:48:40.925Z,6158
2022-09-28T12:49:50.093Z,5660
2022-09-28T12:50:59.274Z,5543
2022-09-28T12:52:08.443Z,4774
2022-09-28T12:53:17.629Z,4065
2022-09-28T12:55:35.960Z,4192
2022-09-28T12:56:44.164Z,5031
2022-09-28T12:57:52.339Z,6667
2022-09-28T12:59:01.501Z,8023
2022-09-28T13:00:10.732Z,8714
2022-09-28T13:01:19.864Z,9700
2022-09-28T13:02:29.036Z,9835
2022-09-28T13:03:38.258Z,10157
2022-09-28T13:05:56.541Z,10320
2022-09-28T13:07:05.717Z,10526
2022-09-28T13:09:24.073Z,5176
2022-09-28T13:10:33.242Z,26301
2022-09-28T13:11:41.438Z,36554
2022-09-28T13:12:49.621Z,14011
2022-09-28T13:13:58.791Z,14473
2022-09-28T13:15:07.963Z,17078
2022-09-28T13:16:17.136Z,22587
2022-09-28T13:17:26.308Z,34038
2022-09-28T13:18:35.487Z,26290
2022-09-28T13:19:44.650Z,49157
2022-09-28T13:20:53.820Z,12522
2022-09-28T13:22:03.003Z,10798
2022-09-28T13:23:12.167Z,10907
2022-09-28T13:24:20.364Z,0
2022-09-28T13:25:28.542Z,22485
2022-09-28T13:26:37.729Z,14869
2022-09-28T13:27:46.899Z,45334
2022-09-28T13:28:56.056Z,41022
2022-09-28T13:30:05.234Z,17808
2022-09-28T13:31:14.398Z,26065
2022-09-28T13:32:23.592Z,24102
2022-09-28T13:33:31.780Z,13192
2022-09-28T13:34:40.946Z,41318
2022-09-28T13:35:50.118Z,47562
2022-09-28T13:36:59.286Z,52603
2022-09-28T13:38:07.488Z,54325
2022-09-28T13:39:15.675Z,21163
2022-09-28T13:40:24.848Z,19893
2022-09-28T13:41:34.010Z,18235
2022-09-28T13:42:43.202Z,18571
2022-09-28T13:43:52.363Z,17429
2022-09-28T13:45:01.540Z,52080
2022-09-28T13:46:10.698Z,22349
2022-09-28T13:47:19.873Z,11503
2022-09-28T13:48:29.056Z,56368
2022-09-28T13:49:38.225Z,57067
2022-09-28T13:50:47.396Z,10178
2022-09-28T13:51:56.567Z,24811
2022-09-28T13:53:05.749Z,18864
2022-09-28T13:54:13.933Z,26172
2022-09-28T13:55:23.096Z,20996
2022-09-28T13:56:32.289Z,26676
2022-09-28T13:57:41.431Z,24741
2022-09-28T13:58:50.614Z,17786
2022-09-28T13:59:59.776Z,50294
2022-09-28T14:01:08.958Z,4418
2022-09-28T14:02:18.127Z,30120
2022-09-28T14:03:27.307Z,7970
2022-09-28T14:04:36.528Z,13808
2022-09-28T14:05:45.644Z,9202
2022-09-28T14:06:54.820Z,0
2022-09-28T14:08:03.992Z,30776
2022-09-28T14:09:12.176Z,26244
2022-09-28T14:10:21.342Z,26297
2022-09-28T14:11:30.533Z,49991
2022-09-28T14:12:39.704Z,11478
2022-09-28T14:13:48.881Z,12222
2022-09-28T14:14:58.040Z,9603
2022-09-28T14:16:07.220Z,8411
2022-09-28T14:17:16.377Z,7895
2022-09-28T14:18:25.547Z,7549
2022-09-28T14:19:34.738Z,7253
2022-09-28T14:20:43.901Z,6892
2022-09-28T14:21:53.076Z,3205
2022-09-28T14:23:02.238Z,10011
2022-09-28T14:24:10.427Z,32602
2022-09-28T14:25:19.607Z,30732
2022-09-28T14:26:28.769Z,23818
2022-09-28T14:27:37.941Z,32074
2022-09-28T14:28:47.128Z,26654
2022-09-28T14:29:56.294Z,26375
2022-09-28T14:31:05.462Z,32814
2022-09-28T14:32:14.636Z,32476
2022-09-28T14:33:23.810Z,29946
2022-09-28T14:34:33.007Z,33373
2022-09-28T14:35:42.152Z,53494
2022-09-28T14:36:51.339Z,18423
2022-09-28T14:38:00.499Z,12679
2022-09-28T14:39:08.730Z,0
2022-09-28T14:40:17.856Z,3381
2022-09-28T14:41:27.041Z,40684
2022-09-28T14:42:36.213Z,52819
2022-09-28T14:43:45.374Z,7029
2022-09-28T14:44:53.576Z,20581
2022-09-28T14:46:01.764Z,28422
2022-09-28T14:47:10.932Z,30750
2022-09-28T14:48:20.106Z,33147
2022-09-28T14:49:29.276Z,34236
2022-09-28T14:50:37.469Z,31928
2022-09-28T14:51:45.658Z,29458
2022-09-28T14:52:54.835Z,29282
2022-09-28T14:55:13.184Z,36989
2022-09-28T14:56:22.346Z,34380
2022-09-28T14:57:31.554Z,32455
2022-09-28T14:58:40.699Z,33023
2022-09-28T14:59:49.872Z,29898
2022-09-28T15:00:59.050Z,32778
2022-09-28T15:02:08.216Z,36125
2022-09-28T15:03:17.416Z,32380
2022-09-28T15:04:26.541Z,31909
2022-09-28T15:05:35.732Z,35956
2022-09-28T15:06:44.884Z,29711
2022-09-28T15:07:53.085Z,32199
2022-09-28T15:09:02.265Z,36048
2022-09-28T15:10:11.425Z,33918
2022-09-28T15:11:20.606Z,35789
2022-09-28T15:12:29.762Z,35436
2022-09-28T15:13:38.930Z,29887
2022-09-28T15:14:48.110Z,31286
2022-09-28T15:15:57.290Z,34290
2022-09-28T15:17:06.454Z,26489
2022-09-28T15:18:15.638Z,20065
2022-09-28T15:19:24.805Z,22104
2022-09-28T15:20:33.980Z,16667
2022-09-28T15:21:43.162Z,49371
2022-09-28T15:24:00.510Z,28007
2022-09-28T15:25:08.695Z,34533
2022-09-28T15:26:16.900Z,30511
2022-09-28T15:27:26.067Z,33583
2022-09-28T15:28:35.242Z,29340
2022-09-28T15:30:53.579Z,33383
2022-09-28T15:32:01.789Z,828
2022-09-28T15:33:09.953Z,14079
2022-09-28T15:34:19.139Z,34722
2022-09-28T15:35:28.351Z,28555
2022-09-28T15:36:37.479Z,22854
2022-09-28T15:37:46.649Z,20233
2022-09-28T15:38:55.815Z,19234
2022-09-28T15:40:04.991Z,24092
2022-09-28T15:41:14.171Z,23754
2022-09-28T15:42:23.347Z,9279
2022-09-28T15:43:32.516Z,43757
2022-09-28T15:44:41.698Z,22510
2022-09-28T15:45:50.858Z,25831
2022-09-28T15:47:00.042Z,24730
2022-09-28T15:48:08.216Z,21773
2022-09-28T15:49:17.403Z,18179
2022-09-28T15:50:26.571Z,61250
2022-09-28T15:51:35.727Z,31029
2022-09-28T15:52:44.914Z,6501
2022-09-28T15:53:54.080Z,41710
2022-09-28T15:55:03.254Z,16765
2022-09-28T15:56:12.425Z,6775
2022-09-28T15:57:21.599Z,5784
2022-09-28T15:58:30.771Z,5931
2022-09-28T15:59:39.934Z,5591
2022-09-28T16:00:49.109Z,5209
2022-09-28T16:01:58.283Z,4901
2022-09-28T16:03:06.481Z,4539
2022-09-28T16:04:15.661Z,4000
2022-09-28T16:05:24.817Z,4076
2022-09-28T16:06:34.003Z,3597
2022-09-28T16:07:43.164Z,3465
2022-09-28T16:08:52.319Z,3306
2022-09-28T16:10:01.500Z,3240